Time;durP1;ratioP1;P1;durP2;ratioP2;P2;SDS_P1;SDS_P2;PMS_P1;PMS_P2;Temp;Humidity;BMP_temperature;BMP_pressure;BME280_temperature;BME280_humidity;BME280_pressure;Samples;Min_cycle;Max_cycle;Signal;HPM_P1;HPM_P2
2024/02/28 00:01:29;;;;;;;10.88;5.05;;;;;;;-146.27;78.74;46077.91;5064050;28;20064;-71
2024/02/28 00:03:55;;;;;;;9.82;5.03;;;;;;;-146.27;79.07;46061.97;5059325;28;21118;-73
2024/02/28 00:06:20;;;;;;;13.98;5.00;;;;;;;-146.27;79.61;46073.91;5064618;28;20025;-72
2024/02/28 00:08:46;;;;;;;7.60;5.40;;;;;;;-146.27;79.66;46081.88;5069099;28;20062;-72
2024/02/28 00:11:11;;;;;;;8.82;5.43;;;;;;;-146.27;79.93;46044.06;5065230;28;20664;-72
2024/02/28 00:13:37;;;;;;;7.07;5.18;;;;;;;-146.27;80.02;46073.91;5067814;28;20043;-72
2024/02/28 00:16:03;;;;;;;9.70;4.97;;;;;;;-146.27;79.87;46046.06;5065117;28;20111;-71
2024/02/28 00:18:30;;;;;;;10.95;4.53;;;;;;;-146.27;79.75;46044.06;5063899;28;20027;-71
2024/02/28 00:20:55;;;;;;;11.07;4.82;;;;;;;-146.27;79.77;46058.00;5066019;28;20070;-72
2024/02/28 00:23:20;;;;;;;7.75;4.70;;;;;;;-146.27;79.96;46046.06;5067345;28;20044;-72
2024/02/28 00:25:46;;;;;;;10.75;4.82;;;;;;;-146.27;80.21;46050.03;5065599;28;20473;-72
2024/02/28 00:28:12;;;;;;;15.10;4.53;;;;;;;-146.27;80.92;46046.06;5065783;28;20028;-72
2024/02/28 00:30:37;;;;;;;7.15;4.93;;;;;;;-146.27;80.57;46036.09;5066640;28;20116;-72
2024/02/28 00:33:03;;;;;;;10.18;5.18;;;;;;;-146.27;80.09;46056.00;5066895;28;20402;-72
2024/02/28 00:35:33;;;;;;;18.33;4.97;;;;;;;-146.27;80.33;46060.00;5066424;28;20020;-72
2024/02/28 00:37:59;;;;;;;10.45;5.38;;;;;;;-146.27;80.81;46085.88;5067492;28;20518;-72
2024/02/28 00:40:25;;;;;;;7.25;4.53;;;;;;;-146.27;80.61;46089.84;5066376;28;20043;-72
2024/02/28 00:42:51;;;;;;;8.60;3.85;;;;;;;-146.27;80.76;46085.88;5067615;28;20082;-72
2024/02/28 00:45:16;;;;;;;11.10;4.32;;;;;;;-146.27;80.37;46081.88;5064762;28;20032;-72
2024/02/28 00:47:42;;;;;;;5.97;3.97;;;;;;;-146.27;80.50;46058.00;5067285;28;20116;-72
2024/02/28 00:50:08;;;;;;;24.30;4.18;;;;;;;-146.27;80.59;46089.84;5067973;28;20020;-70
2024/02/28 00:52:33;;;;;;;8.85;3.92;;;;;;;-146.27;80.44;46069.94;5068392;28;20115;-72
2024/02/28 00:54:59;;;;;;;8.50;3.92;;;;;;;-146.27;80.81;46061.97;5071073;28;20564;-71
2024/02/28 00:57:25;;;;;;;7.68;3.90;;;;;;;-146.27;80.99;46075.91;5068167;28;20119;-71
2024/02/28 00:59:50;;;;;;;7.25;4.13;;;;;;;-146.27;80.97;46073.91;5065466;28;20113;-72
2024/02/28 01:02:16;;;;;;;9.35;3.85;;;;;;;-146.27;80.93;46048.03;5072297;28;20504;-73
2024/02/28 01:04:42;;;;;;;5.78;4.03;;;;;;;-146.27;80.95;46030.13;5071752;28;20056;-70
2024/02/28 01:07:07;;;;;;;9.73;3.70;;;;;;;-146.27;80.83;46034.09;5070998;28;20655;-72
2024/02/28 01:09:33;;;;;;;10.98;3.75;;;;;;;-146.27;80.52;46022.16;5071529;28;20036;-72
2024/02/28 01:11:58;;;;;;;15.18;4.05;;;;;;;-146.27;80.27;46032.13;5071647;28;20025;-72
2024/02/28 01:14:24;;;;;;;6.72;4.88;;;;;;;-146.27;80.05;45994.31;5068942;28;20032;-70
2024/02/28 01:16:50;;;;;;;10.18;4.60;;;;;;;-146.27;80.13;46014.22;5069630;28;20040;-72
2024/02/28 01:19:16;;;;;;;6.18;4.45;;;;;;;-146.27;80.27;46028.13;5071735;28;20029;-72
2024/02/28 01:21:41;;;;;;;6.30;3.97;;;;;;;-146.27;80.34;46006.25;5070331;28;20038;-72
2024/02/28 01:24:07;;;;;;;5.85;4.07;;;;;;;-146.27;80.72;46026.16;5070477;28;20116;-72
2024/02/28 01:26:32;;;;;;;14.93;4.40;;;;;;;-146.27;80.15;46018.19;5067627;28;20118;-71
2024/02/28 01:28:58;;;;;;;10.50;4.13;;;;;;;-146.27;80.18;45996.28;5070511;28;20043;-71
2024/02/28 01:31:23;;;;;;;10.98;4.15;;;;;;;-146.27;79.82;45988.31;5070726;28;20064;-72
2024/02/28 01:33:49;;;;;;;7.97;4.07;;;;;;;-146.27;80.41;46006.25;5069687;28;20485;-72
2024/02/28 01:36:15;;;;;;;11.50;4.00;;;;;;;-146.27;80.47;45984.34;5069679;28;20090;-72
2024/02/28 01:38:40;;;;;;;7.78;5.07;;;;;;;-146.27;79.50;45970.41;5065569;28;20112;-71
2024/02/28 01:41:05;;;;;;;8.60;3.75;;;;;;;-146.27;79.65;46014.22;5066519;28;20028;-72
2024/02/28 01:43:31;;;;;;;10.10;4.32;;;;;;;-146.27;80.02;46002.25;5069771;28;20020;-72
2024/02/28 01:46:01;;;;;;;5.47;3.72;;;;;;;-146.27;80.05;45994.31;5066943;28;20482;-73
2024/02/28 01:48:26;;;;;;;8.65;4.45;;;;;;;-146.27;79.80;45978.38;5070624;28;20373;-71
2024/02/28 01:50:52;;;;;;;13.43;5.15;;;;;;;-146.27;80.49;45990.31;5065294;28;20055;-72
2024/02/28 01:53:17;;;;;;;10.40;4.18;;;;;;;-146.27;80.51;45990.31;5054798;28;20483;-72
2024/02/28 01:55:43;;;;;;;12.15;4.60;;;;;;;-146.27;80.24;45984.34;5069830;28;20119;-72
2024/02/28 01:58:09;;;;;;;9.02;4.45;;;;;;;-146.27;81.30;45992.31;5065243;28;20172;-73
2024/02/28 02:00:37;;;;;;;12.20;4.97;;;;;;;-146.27;81.08;45940.56;5065696;28;20366;-72
2024/02/28 02:03:03;;;;;;;5.80;3.90;;;;;;;-146.27;81.12;45950.50;5066076;28;20117;-72
2024/02/28 02:05:29;;;;;;;9.48;4.35;;;;;;;-146.27;80.70;45936.56;5066199;28;20020;-72
2024/02/28 02:07:57;;;;;;;11.18;5.43;;;;;;;-146.27;80.81;45938.56;5069899;28;20043;-73
2024/02/28 02:10:23;;;;;;;8.65;4.82;;;;;;;-146.27;80.10;45946.53;5068127;28;22592;-72
2024/02/28 02:12:48;;;;;;;9.23;5.25;;;;;;;-146.27;80.92;45958.47;5067902;28;20085;-71
2024/02/28 02:15:14;;;;;;;11.00;5.00;;;;;;;-146.27;81.51;45950.50;5069584;28;20024;-73
2024/02/28 02:17:39;;;;;;;9.77;5.43;;;;;;;-146.27;81.81;45948.53;5070603;28;20036;-72
2024/02/28 02:20:06;;;;;;;10.35;4.75;;;;;;;-146.27;81.27;45950.50;5067413;28;20604;-71
2024/02/28 02:22:35;;;;;;;9.90;5.07;;;;;;;-146.27;81.61;45938.56;5069460;28;20090;-72
2024/02/28 02:25:03;;;;;;;8.05;5.10;;;;;;;-146.27;80.95;45918.66;5067607;28;20020;-73
2024/02/28 02:27:28;;;;;;;11.82;5.65;;;;;;;-146.27;80.81;45934.59;5069128;28;20512;-72
2024/02/28 02:29:54;;;;;;;12.57;4.80;;;;;;;-146.27;80.89;45926.63;5070269;28;20063;-72
2024/02/28 02:32:19;;;;;;;7.40;5.00;;;;;;;-146.27;80.92;45942.53;5067907;28;20020;-73
2024/02/28 02:34:44;;;;;;;14.02;5.28;;;;;;;-146.27;80.50;45950.50;5068451;28;20345;-72
2024/02/28 02:37:10;;;;;;;7.25;5.43;;;;;;;-146.27;80.32;45924.63;5068542;28;20661;-73
2024/02/28 02:39:35;;;;;;;9.30;4.35;;;;;;;-146.27;80.51;45970.41;5068851;28;20505;-72
2024/02/28 02:42:00;;;;;;;7.90;6.20;;;;;;;-146.27;80.81;45950.50;5070351;28;20378;-71
2024/02/28 02:44:26;;;;;;;9.88;5.22;;;;;;;-146.27;81.45;45956.47;5068998;28;20369;-70
2024/02/28 02:46:51;;;;;;;11.70;5.50;;;;;;;-146.27;81.33;45950.50;5065506;28;20120;-72
2024/02/28 02:49:18;;;;;;;10.02;5.40;;;;;;;-146.27;81.60;45958.47;5068959;28;20077;-72
2024/02/28 02:51:44;;;;;;;8.52;5.45;;;;;;;-146.27;81.87;45938.56;5069434;28;20036;-73
2024/02/28 02:54:09;;;;;;;7.65;6.05;;;;;;;-146.27;82.33;45930.59;5068140;28;20102;-72
2024/02/28 02:56:35;;;;;;;10.48;6.70;;;;;;;-146.27;82.25;45914.69;5070819;28;20411;-73
2024/02/28 02:59:00;;;;;;;13.30;5.97;;;;;;;-146.27;82.65;45942.53;5068784;28;20051;-72
2024/02/28 03:01:25;;;;;;;11.73;5.95;;;;;;;-146.27;82.57;45914.69;5068687;28;20024;-72
2024/02/28 03:03:52;;;;;;;14.48;6.15;;;;;;;-146.27;82.39;45902.75;5070144;28;20024;-73
2024/02/28 03:06:17;;;;;;;11.95;6.05;;;;;;;-146.27;82.32;45896.75;5071013;28;20104;-73
2024/02/28 03:08:43;;;;;;;11.98;6.68;;;;;;;-146.27;82.77;45924.63;5069256;28;20120;-71
2024/02/28 03:11:09;;;;;;;17.40;7.25;;;;;;;-146.27;83.28;45914.69;5069802;28;20656;-73
2024/02/28 03:13:34;;;;;;;10.02;6.65;;;;;;;-146.27;82.37;45906.72;5068843;28;20024;-70
2024/02/28 03:16:00;;;;;;;10.63;6.32;;;;;;;-146.27;82.20;45884.81;5069981;28;20032;-72
2024/02/28 03:18:25;;;;;;;17.05;7.20;;;;;;;-146.27;83.33;45924.63;5066314;28;20027;-73
2024/02/28 03:20:51;;;;;;;13.90;6.57;;;;;;;-146.27;83.18;45870.88;5069141;28;20381;-72
2024/02/28 03:23:16;;;;;;;14.70;6.82;;;;;;;-146.27;83.20;45866.91;5068282;28;20465;-73
2024/02/28 03:25:42;;;;;;;12.65;7.07;;;;;;;-146.27;83.53;45886.81;5068662;28;20690;-73
2024/02/28 03:28:07;;;;;;;12.45;6.85;;;;;;;-146.27;83.56;45882.84;5069132;28;20106;-75
2024/02/28 03:30:32;;;;;;;15.73;6.88;;;;;;;-146.27;83.72;45886.81;5069261;28;20020;-74
2024/02/28 03:32:58;;;;;;;13.40;7.45;;;;;;;-146.27;83.58;45860.94;5067697;28;20111;-74
2024/02/28 03:35:23;;;;;;;12.15;6.97;;;;;;;-146.27;83.85;45862.94;5069520;28;20108;-74
2024/02/28 03:37:49;;;;;;;15.38;7.47;;;;;;;-146.27;83.75;45852.97;5056060;28;20789;-74
2024/02/28 03:40:14;;;;;;;16.40;7.18;;;;;;;-146.27;84.84;45900.75;5066042;28;20640;-74
2024/02/28 03:42:40;;;;;;;15.68;7.85;;;;;;;-146.27;83.75;45849.00;5071421;28;20028;-74
2024/02/28 03:45:06;;;;;;;14.57;7.47;;;;;;;-146.27;84.22;45862.94;5068578;28;20484;-74
2024/02/28 03:47:31;;;;;;;12.98;7.55;;;;;;;-146.27;84.05;45827.09;5069238;28;20036;-74
2024/02/28 03:49:57;;;;;;;11.25;7.38;;;;;;;-146.27;84.04;45823.13;5067889;28;20020;-74
2024/02/28 03:52:23;;;;;;;14.32;6.97;;;;;;;-146.27;83.55;45835.06;5069674;28;20627;-74
2024/02/28 03:54:49;;;;;;;13.45;8.02;;;;;;;-146.27;82.65;45819.13;5068163;28;20028;-74
2024/02/28 03:57:14;;;;;;;18.00;7.93;;;;;;;-146.27;82.83;45819.13;5071047;28;20024;-74
2024/02/28 03:59:42;;;;;;;19.58;8.52;;;;;;;-146.27;83.71;45827.09;5068285;28;20431;-74
2024/02/28 04:02:07;;;;;;;14.95;7.63;;;;;;;-146.27;84.39;45807.19;5067713;28;20025;-74
2024/02/28 04:04:33;;;;;;;14.57;8.20;;;;;;;-146.27;83.13;45815.16;5066281;28;20016;-74
2024/02/28 04:06:59;;;;;;;18.15;8.52;;;;;;;-146.27;83.91;45819.13;5065645;28;20040;-74
2024/02/28 04:09:24;;;;;;;13.25;7.28;;;;;;;-146.27;83.75;45815.16;5062675;28;20025;-74
2024/02/28 04:11:51;;;;;;;13.50;8.48;;;;;;;-146.27;83.85;45809.19;5064448;28;20472;-74
2024/02/28 04:14:16;;;;;;;14.23;7.95;;;;;;;-146.27;84.01;45809.19;5066261;28;20028;-74
2024/02/28 04:16:45;;;;;;;19.35;8.40;;;;;;;-146.27;82.85;45775.34;5067769;28;20116;-74
2024/02/28 04:19:11;;;;;;;11.13;7.70;;;;;;;-146.27;84.61;45817.16;5068696;28;20407;-74
2024/02/28 04:21:37;;;;;;;16.42;8.55;;;;;;;-146.27;84.48;45767.38;5065819;28;20042;-74
2024/02/28 04:24:04;;;;;;;16.20;9.25;;;;;;;-146.27;83.28;45747.47;5064975;28;20512;-74
2024/02/28 04:26:29;;;;;;;21.98;8.68;;;;;;;-146.27;83.14;45755.44;5064967;28;20048;-74
2024/02/28 04:28:56;;;;;;;19.00;8.38;;;;;;;-146.27;83.03;45763.41;5062978;28;20385;-73
2024/02/28 04:31:22;;;;;;;14.63;9.27;;;;;;;-146.27;84.29;45793.25;5065579;28;20051;-74
2024/02/28 04:33:47;;;;;;;19.30;9.13;;;;;;;-146.27;83.41;45743.50;5065259;28;20028;-74
2024/02/28 04:36:13;;;;;;;21.65;9.00;;;;;;;-146.27;83.75;45757.44;5068465;28;20021;-74
2024/02/28 04:38:38;;;;;;;18.60;9.57;;;;;;;-146.27;83.17;45771.38;5068459;28;20044;-74
2024/02/28 04:41:03;;;;;;;21.60;9.25;;;;;;;-146.27;83.12;45779.31;5067878;28;20823;-74
2024/02/28 04:43:29;;;;;;;19.73;8.93;;;;;;;-146.27;84.12;45807.19;5070925;28;20444;-74
2024/02/28 04:45:54;;;;;;;14.38;8.75;;;;;;;-146.27;83.91;45763.41;5068717;28;20519;-74
2024/02/28 04:48:19;;;;;;;21.80;10.20;;;;;;;-146.27;83.33;45751.47;5065585;28;20485;-74
2024/02/28 04:50:45;;;;;;;20.77;9.95;;;;;;;-146.27;83.06;45733.56;5062318;28;20058;-74
2024/02/28 04:53:10;;;;;;;20.75;11.45;;;;;;;-146.27;84.26;45799.22;5061821;28;20232;-74
2024/02/28 04:55:35;;;;;;;26.73;11.57;;;;;;;-146.27;84.46;45775.34;5067733;28;20094;-74
2024/02/28 04:58:01;;;;;;;24.90;10.63;;;;;;;-146.27;84.91;45773.34;5066659;28;20025;-74
2024/02/28 05:00:26;;;;;;;17.65;11.15;;;;;;;-146.27;84.69;45743.50;5068704;28;20528;-75
2024/02/28 05:02:52;;;;;;;16.88;10.40;;;;;;;-146.27;85.67;45787.28;5067481;28;20416;-74
2024/02/28 05:05:17;;;;;;;23.25;10.93;;;;;;;-146.27;84.78;45731.56;5069099;28;20032;-74
2024/02/28 05:07:43;;;;;;;26.90;11.52;;;;;;;-146.27;85.78;45791.28;5079479;28;20085;-74
2024/02/28 05:10:08;;;;;;;18.83;11.35;;;;;;;-146.27;84.95;45719.63;5068666;28;20074;-74
2024/02/28 05:12:34;;;;;;;18.35;11.15;;;;;;;-146.27;84.90;45711.66;5069204;28;20394;-74
2024/02/28 05:14:59;;;;;;;20.20;10.80;;;;;;;-146.27;84.61;45699.72;5066317;28;20028;-74
2024/02/28 05:17:24;;;;;;;19.25;11.15;;;;;;;-146.27;84.67;45723.59;5065713;28;20108;-74
2024/02/28 05:19:50;;;;;;;30.38;11.82;;;;;;;-146.27;84.37;45669.84;5065861;28;20035;-74
2024/02/28 05:22:15;;;;;;;25.80;12.05;;;;;;;-146.27;85.40;45703.69;5068114;28;20499;-74
2024/02/28 05:24:43;;;;;;;19.20;11.95;;;;;;;-146.27;85.24;45701.69;5065113;28;20028;-74
2024/02/28 05:27:09;;;;;;;18.17;10.52;;;;;;;-146.27;85.10;45673.84;5070217;28;20130;-74
2024/02/28 05:29:34;;;;;;;18.48;11.23;;;;;;;-146.27;84.77;45659.91;5066540;28;20107;-74
2024/02/28 05:31:59;;;;;;;21.08;11.20;;;;;;;-146.27;84.75;45691.75;5064220;28;20035;-74
2024/02/28 05:34:25;;;;;;;21.73;10.93;;;;;;;-146.27;84.80;45667.88;5065874;28;20501;-74
2024/02/28 05:36:50;;;;;;;20.45;10.77;;;;;;;-146.27;84.83;45703.69;5067820;28;20489;-74
2024/02/28 05:39:15;;;;;;;23.70;11.85;;;;;;;-146.27;85.42;45683.78;5059160;28;20485;-74
2024/02/28 05:41:41;;;;;;;16.90;11.02;;;;;;;-146.27;85.29;45687.78;5066313;28;20366;-74
2024/02/28 05:44:06;;;;;;;20.90;11.60;;;;;;;-146.27;85.57;45663.88;5069984;28;20103;-74
2024/02/28 05:46:32;;;;;;;21.00;11.52;;;;;;;-146.27;84.91;45638.00;5067774;28;20595;-74
2024/02/28 05:48:57;;;;;;;21.20;11.90;;;;;;;-146.27;85.16;45677.81;5071209;28;20031;-74
2024/02/28 05:51:23;;;;;;;21.60;11.77;;;;;;;-146.27;85.15;45657.91;5071434;28;20054;-74
2024/02/28 05:53:48;;;;;;;19.40;12.15;;;;;;;-146.27;85.29;45624.06;5070967;28;20059;-74
2024/02/28 05:56:14;;;;;;;15.55;11.13;;;;;;;-146.27;84.49;45636.03;5069907;28;20032;-74
2024/02/28 05:58:46;;;;;;;25.00;11.65;;;;;;;-146.27;84.40;45632.03;5070212;28;20039;-74
2024/02/28 06:01:12;;;;;;;20.30;11.55;;;;;;;-146.27;84.82;45661.91;5067860;28;20024;-74
2024/02/28 06:03:38;;;;;;;22.08;11.85;;;;;;;-146.27;85.79;45661.91;5071824;28;20020;-74
2024/02/28 06:06:05;;;;;;;22.98;11.80;;;;;;;-146.27;85.28;45642.00;5071040;28;20044;-74
2024/02/28 06:08:34;;;;;;;21.33;12.02;;;;;;;-146.27;85.65;45642.00;5071264;28;20052;-74
2024/02/28 06:11:00;;;;;;;19.00;11.32;;;;;;;-146.27;84.95;45604.19;5071046;28;20492;-74
2024/02/28 06:13:25;;;;;;;20.00;12.43;;;;;;;-146.27;85.37;45643.97;5071132;28;20025;-75
2024/02/28 06:15:51;;;;;;;17.85;11.68;;;;;;;-146.27;86.07;45632.03;5069886;28;20021;-73
2024/02/28 06:18:16;;;;;;;23.38;12.73;;;;;;;-146.27;87.27;45663.88;5070641;28;20066;-74
2024/02/28 06:20:42;;;;;;;20.77;12.73;;;;;;;-146.27;86.80;45608.16;5070676;28;20028;-74
2024/02/28 06:23:07;;;;;;;29.17;13.32;;;;;;;-146.27;87.18;45604.19;5074415;28;20500;-74
2024/02/28 06:25:34;;;;;;;23.80;13.50;;;;;;;-146.27;86.89;45588.25;5070894;28;20028;-74
2024/02/28 06:28:00;;;;;;;29.00;13.55;;;;;;;-146.27;87.00;45624.06;5070383;28;20454;-74
2024/02/28 06:30:25;;;;;;;21.30;13.20;;;;;;;-146.27;87.45;45608.16;5067699;28;20103;-74
2024/02/28 06:32:51;;;;;;;23.20;13.52;;;;;;;-146.27;87.16;45586.25;5070614;28;20115;-74
2024/02/28 06:35:17;;;;;;;19.70;13.23;;;;;;;-146.27;87.38;45612.13;5068664;28;22433;-74
2024/02/28 06:37:48;;;;;;;24.38;13.02;;;;;;;-146.27;87.13;45554.41;5065797;28;20112;-74
2024/02/28 06:40:13;;;;;;;23.92;15.13;;;;;;;-146.27;88.00;45610.16;5067964;28;20044;-74
2024/02/28 06:42:39;;;;;;;26.30;14.60;;;;;;;-146.27;87.63;45602.19;5065946;28;20441;-74
2024/02/28 06:45:05;;;;;;;27.50;14.35;;;;;;;-146.27;87.81;45560.38;5068733;28;20508;-74
2024/02/28 06:47:32;;;;;;;30.23;14.38;;;;;;;-146.27;88.00;45550.44;5069036;28;20047;-74
2024/02/28 06:49:57;;;;;;;27.20;15.02;;;;;;;-146.27;88.00;45568.34;5070846;28;20020;-74
2024/02/28 06:52:23;;;;;;;23.15;13.82;;;;;;;-146.27;88.29;45568.34;5069592;28;20802;-74
2024/02/28 06:54:48;;;;;;;25.58;14.05;;;;;;;-146.27;88.38;45544.47;5067592;28;20455;-74
2024/02/28 06:57:13;;;;;;;35.00;15.07;;;;;;;-146.27;87.94;45528.53;5070360;28;20028;-74
2024/02/28 06:59:39;;;;;;;25.02;13.80;;;;;;;-146.27;87.86;45504.66;5068898;28;20392;-75
2024/02/28 07:02:05;;;;;;;25.45;14.40;;;;;;;-146.27;88.23;45514.63;5068518;28;20482;-74
2024/02/28 07:04:30;;;;;;;31.25;15.57;;;;;;;-146.27;87.98;45520.59;5062517;28;20147;-74
2024/02/28 07:06:55;;;;;;;29.70;14.32;;;;;;;-146.27;88.36;45512.63;5067382;28;20114;-74
2024/02/28 07:09:21;;;;;;;25.70;14.05;;;;;;;-146.27;88.13;45508.63;5066191;28;20031;-74
2024/02/28 07:11:46;;;;;;;27.30;14.88;;;;;;;-146.27;88.08;45488.75;5062270;28;20173;-74
2024/02/28 07:14:12;;;;;;;24.45;15.15;;;;;;;-146.27;88.27;45500.69;5069982;28;20032;-74
2024/02/28 07:16:37;;;;;;;25.52;15.23;;;;;;;-146.27;88.54;45488.75;5066991;28;20252;-74
2024/02/28 07:19:03;;;;;;;29.60;16.27;;;;;;;-146.27;89.33;45508.63;5066663;28;20086;-73
2024/02/28 07:21:30;;;;;;;22.55;14.52;;;;;;;-146.27;88.77;45480.78;5065300;28;20079;-73
2024/02/28 07:23:56;;;;;;;23.10;14.80;;;;;;;-146.27;88.59;45482.78;5070476;28;20064;-74
2024/02/28 07:26:21;;;;;;;26.25;14.65;;;;;;;-146.27;88.94;45518.59;5068532;28;20129;-73
2024/02/28 07:28:49;;;;;;;26.45;16.08;;;;;;;-146.27;89.49;45508.63;5070676;28;20025;-74
2024/02/28 07:31:16;;;;;;;23.08;14.20;;;;;;;-146.27;89.03;45492.72;5066564;28;20055;-74
2024/02/28 07:33:41;;;;;;;32.45;15.18;;;;;;;-146.27;89.75;45520.59;5069585;28;20439;-73
2024/02/28 07:36:07;;;;;;;26.90;16.30;;;;;;;-146.27;89.80;45476.78;5069112;28;20020;-74
2024/02/28 07:38:32;;;;;;;23.77;15.45;;;;;;;-146.27;89.59;45446.94;5064997;28;20031;-73
2024/02/28 07:40:58;;;;;;;32.47;15.95;;;;;;;-146.27;89.45;45486.75;5071489;28;20125;-74
2024/02/28 07:43:24;;;;;;;32.85;16.77;;;;;;;-146.27;90.64;45480.78;5067173;28;20503;-73
2024/02/28 07:45:49;;;;;;;26.50;15.18;;;;;;;-146.27;90.60;45518.59;5070632;28;20628;-73
2024/02/28 07:48:17;;;;;;;24.95;15.90;;;;;;;-146.27;91.26;45484.75;5069860;28;20055;-73
2024/02/28 07:50:44;;;;;;;36.72;16.73;;;;;;;-146.27;91.28;45468.84;5068508;28;20114;-73
2024/02/28 07:53:09;;;;;;;27.85;15.75;;;;;;;-146.27;91.54;45450.91;5080979;28;20500;-73
2024/02/28 07:55:34;;;;;;;26.88;17.42;;;;;;;-146.27;91.59;45456.91;5071194;28;20085;-73
2024/02/28 07:58:00;;;;;;;30.73;17.23;;;;;;;-146.27;91.05;45444.94;5068157;28;20024;-74
2024/02/28 08:00:25;;;;;;;34.13;17.17;;;;;;;-146.27;91.27;45454.91;5061136;28;20024;-73
2024/02/28 08:02:50;;;;;;;27.73;16.70;;;;;;;-146.27;90.99;45440.97;5069577;28;20032;-73
2024/02/28 08:05:16;;;;;;;25.90;16.60;;;;;;;-146.27;91.27;45446.94;5066499;28;20104;-75
2024/02/28 08:07:42;;;;;;;32.35;18.02;;;;;;;-146.27;91.15;45456.91;5069256;28;20016;-75
2024/02/28 08:10:09;;;;;;;31.92;18.23;;;;;;;-146.27;91.98;45476.78;5067440;28;20051;-73
2024/02/28 08:12:35;;;;;;;30.38;17.42;;;;;;;-146.27;91.53;45448.94;5063949;28;20136;-73
2024/02/28 08:15:00;;;;;;;33.33;17.02;;;;;;;-146.27;91.13;45444.94;5069426;28;20149;-74
2024/02/28 08:17:26;;;;;;;29.92;17.65;;;;;;;-146.27;90.53;45464.84;5065922;28;20310;-73
2024/02/28 08:19:51;;;;;;;35.85;17.63;;;;;;;-146.27;90.97;45456.91;5071794;28;20031;-73
2024/02/28 08:22:16;;;;;;;27.92;17.02;;;;;;;-146.27;90.37;45437.00;5070108;28;20419;-73
2024/02/28 08:24:42;;;;;;;34.92;18.13;;;;;;;-146.27;90.34;45433.00;5067463;28;20388;-74
2024/02/28 08:27:07;;;;;;;31.55;18.45;;;;;;;-146.27;90.18;45437.00;5073109;28;20045;-74
2024/02/28 08:29:35;;;;;;;26.08;16.83;;;;;;;-146.27;90.37;45427.03;5074556;28;20518;-74
2024/02/28 08:32:00;;;;;;;30.77;17.42;;;;;;;-146.27;90.22;45454.91;5062796;28;20060;-74
2024/02/28 08:34:26;;;;;;;32.38;16.13;;;;;;;-146.27;90.21;45452.91;5069510;28;20518;-73
2024/02/28 08:36:52;;;;;;;34.50;17.50;;;;;;;-146.27;90.88;45442.97;5067641;28;20035;-74
2024/02/28 08:39:17;;;;;;;27.58;17.35;;;;;;;-146.27;90.87;45472.81;5061338;28;20035;-73
2024/02/28 08:41:43;;;;;;;36.60;17.23;;;;;;;-146.27;90.81;45409.13;5069361;28;20503;-73
2024/02/28 08:44:08;;;;;;;30.50;17.92;;;;;;;-146.27;90.40;45415.09;5071444;28;20082;-72
2024/02/28 08:46:34;;;;;;;32.88;17.35;;;;;;;-146.27;90.39;45438.97;5069699;28;20028;-74
2024/02/28 08:48:59;;;;;;;31.90;16.77;;;;;;;-146.27;90.71;45417.09;5075111;28;20140;-73
2024/02/28 08:51:24;;;;;;;38.80;17.60;;;;;;;-146.27;89.88;45425.06;5064097;28;20538;-74
2024/02/28 08:53:52;;;;;;;27.90;17.25;;;;;;;-146.27;89.42;45437.00;5067404;28;20392;-74
2024/02/28 08:56:17;;;;;;;28.75;17.63;;;;;;;-146.27;90.04;45433.00;5066238;28;20028;-74
2024/02/28 08:58:44;;;;;;;37.30;19.55;;;;;;;-146.27;90.50;45405.16;5059473;28;20038;-74
2024/02/28 09:01:14;;;;;;;29.05;17.85;;;;;;;-146.27;90.50;45411.13;5072282;28;20084;-74
2024/02/28 09:03:39;;;;;;;31.73;17.90;;;;;;;-146.27;90.29;45411.13;5061877;28;20021;-75
2024/02/28 09:06:05;;;;;;;34.92;18.83;;;;;;;-146.27;90.26;45433.00;5067871;28;20392;-75
2024/02/28 09:08:30;;;;;;;35.05;19.48;;;;;;;-146.27;90.94;45444.94;5069024;28;20020;-74
2024/02/28 09:10:55;;;;;;;32.50;19.27;;;;;;;-146.27;91.05;45437.00;5057567;28;20024;-74
2024/02/28 09:13:21;;;;;;;35.15;19.98;;;;;;;-146.27;91.10;45429.03;5062657;28;20032;-75
2024/02/28 09:15:46;;;;;;;31.20;18.52;;;;;;;-146.27;90.53;45413.09;5068825;28;20062;-77
2024/02/28 09:18:12;;;;;;;36.65;20.25;;;;;;;-146.27;90.72;45462.88;5072053;28;20063;-72
2024/02/28 09:20:37;;;;;;;30.25;18.90;;;;;;;-146.27;91.37;45421.06;5071447;28;20028;-73
2024/02/28 09:23:03;;;;;;;34.55;19.27;;;;;;;-146.27;90.49;45433.00;5071226;28;20067;-73
2024/02/28 09:25:28;;;;;;;32.70;19.05;;;;;;;-146.27;90.26;45405.16;5071759;28;20060;-73
2024/02/28 09:27:53;;;;;;;32.35;17.58;;;;;;;-146.27;91.56;45437.00;5071142;28;20079;-72
2024/02/28 09:30:19;;;;;;;37.78;18.83;;;;;;;-146.27;89.89;45393.22;5074925;28;20027;-73
2024/02/28 09:32:44;;;;;;;32.42;17.40;;;;;;;-146.27;89.26;45429.03;5061014;28;20078;-73
2024/02/28 09:35:10;;;;;;;24.90;16.90;;;;;;;-146.27;90.10;45442.97;5073897;28;20043;-72
2024/02/28 09:37:37;;;;;;;31.45;18.80;;;;;;;-146.27;89.19;45435.00;5087490;28;20020;-73
2024/02/28 09:40:04;;;;;;;28.73;16.92;;;;;;;-146.27;88.69;45425.06;5066756;28;20043;-73
2024/02/28 09:42:29;;;;;;;35.45;17.85;;;;;;;-146.27;88.24;45413.09;5072282;28;20063;-72
2024/02/28 09:44:55;;;;;;;24.15;16.98;;;;;;;-146.27;87.65;45389.22;5071248;28;20052;-73
2024/02/28 09:47:21;;;;;;;27.67;16.45;;;;;;;-146.27;87.74;45381.25;5072202;28;20062;-72
2024/02/28 09:49:51;;;;;;;30.25;16.38;;;;;;;-146.27;88.38;45401.16;5071232;28;20016;-72
2024/02/28 09:52:16;;;;;;;27.00;16.98;;;;;;;-146.27;87.77;45349.41;5071262;28;20024;-72
2024/02/28 09:54:43;;;;;;;28.45;16.98;;;;;;;-146.27;89.10;45444.94;5068064;28;20124;-72
2024/02/28 09:57:11;;;;;;;27.83;16.73;;;;;;;-146.27;90.18;45411.13;5071283;28;20036;-72
2024/02/28 09:59:39;;;;;;;30.55;18.38;;;;;;;-146.27;88.22;45329.53;5068885;28;20032;-72
2024/02/28 10:02:06;;;;;;;29.17;17.30;;;;;;;-146.27;88.53;45379.28;5072821;28;20023;-72
2024/02/28 10:04:33;;;;;;;25.50;16.42;;;;;;;-146.27;88.96;45373.31;5070654;28;20643;-73
2024/02/28 10:07:10;;;;;;;31.27;16.83;;;;;;;-146.27;88.34;45351.41;5071006;28;20086;-73
2024/02/28 10:09:35;;;;;;;32.08;17.38;;;;;;;-146.27;88.75;45313.59;5069734;28;20424;-72
2024/02/28 10:12:02;;;;;;;30.30;17.15;;;;;;;-146.27;89.66;45377.28;5068768;28;20028;-73
2024/02/28 10:14:28;;;;;;;34.17;17.33;;;;;;;-146.27;89.10;45345.44;5071249;28;20025;-73
2024/02/28 10:16:55;;;;;;;31.10;17.75;;;;;;;-146.27;88.78;45335.50;5071481;28;20024;-73
2024/02/28 10:19:21;;;;;;;30.63;17.52;;;;;;;-146.27;88.46;45321.56;5076201;28;20036;-72
2024/02/28 10:21:46;;;;;;;32.28;17.50;;;;;;;-146.27;87.38;45289.72;5075263;28;20027;-73
2024/02/28 10:24:15;;;;;;;31.80;17.02;;;;;;;-146.27;88.06;45275.78;5070208;28;20389;-73
2024/02/28 10:26:56;;;;;;;28.77;17.10;;;;;;;-146.27;88.44;45275.78;5070720;28;20044;-74
2024/02/28 10:29:25;;;;;;;30.10;16.33;;;;;;;-146.27;87.87;45232.00;5050110;28;20036;-75
2024/02/28 10:31:52;;;;;;;29.52;16.88;;;;;;;-146.27;88.15;45279.75;5069467;28;20028;-74
2024/02/28 10:34:18;;;;;;;33.38;16.08;;;;;;;-146.27;89.13;45317.56;5069883;28;20024;-75
2024/02/28 10:36:45;;;;;;;29.10;15.65;;;;;;;-146.27;87.90;45214.09;5068335;28;20500;-75
2024/02/28 10:39:11;;;;;;;34.15;17.15;;;;;;;-146.27;87.70;45267.81;5066790;28;20024;-75
2024/02/28 10:41:38;;;;;;;30.85;16.15;;;;;;;-146.27;87.82;45247.91;5069477;28;20424;-75
2024/02/28 10:44:04;;;;;;;29.98;16.83;;;;;;;-146.27;88.20;45301.66;5067979;28;20032;-75
2024/02/28 10:46:30;;;;;;;29.92;16.27;;;;;;;-146.27;89.34;45309.63;5070541;28;20488;-75
2024/02/28 10:48:57;;;;;;;28.95;17.67;;;;;;;-146.27;89.16;45315.59;5071475;28;20051;-75
2024/02/28 10:51:26;;;;;;;30.75;17.58;;;;;;;-146.27;88.42;45327.53;5071768;28;20016;-76
2024/02/28 10:54:09;;;;;;;30.95;17.67;;;;;;;-146.27;87.59;45269.81;5070943;28;20060;-74
2024/02/28 10:56:35;;;;;;;27.85;16.95;;;;;;;-146.27;87.54;45247.91;5051699;28;20031;-75
2024/02/28 10:59:01;;;;;;;32.17;16.88;;;;;;;-146.27;87.24;45214.09;5071663;28;20032;-74
2024/02/28 11:01:27;;;;;;;27.50;15.80;;;;;;;-146.27;87.72;45309.63;5069563;28;20469;-75